createdAt,value
2022-08-12T00:02:48.384Z,23.90
2022-08-12T00:05:34.976Z,23.80
2022-08-12T00:08:30.963Z,23.80
2022-08-12T00:11:22.791Z,23.70
2022-08-12T00:14:08.796Z,23.70
2022-08-12T00:16:56.381Z,23.60
2022-08-12T00:19:41.952Z,23.60
2022-08-12T00:22:29.328Z,23.60
2022-08-12T00:26:01.431Z,23.60
2022-08-12T00:28:30.405Z,23.50
2022-08-12T00:31:15.962Z,23.50
2022-08-12T00:34:01.370Z,23.50
2022-08-12T00:36:48.906Z,23.40
2022-08-12T00:39:36.275Z,23.40
2022-08-12T00:42:13.386Z,23.40
2022-08-12T00:44:43.441Z,23.30
2022-08-12T00:47:24.158Z,23.30
2022-08-12T00:49:53.255Z,23.20
2022-08-12T00:52:20.731Z,23.20
2022-08-12T00:54:59.312Z,23.10
2022-08-12T00:57:28.884Z,23.10
2022-08-12T00:59:57.179Z,23.00
2022-08-12T01:02:29.953Z,23.00
2022-08-12T01:06:08.956Z,23.00
2022-08-12T01:08:54.660Z,22.90
2022-08-12T01:11:32.842Z,22.80
2022-08-12T01:14:01.646Z,22.70
2022-08-12T01:16:29.388Z,22.70
2022-08-12T01:18:57.866Z,22.60
2022-08-12T01:21:27.946Z,22.60
2022-08-12T01:24:31.444Z,22.50
2022-08-12T01:27:01.442Z,22.50
2022-08-12T01:29:34.136Z,22.40
2022-08-12T01:32:06.510Z,22.40
2022-08-12T01:34:39.478Z,22.30
2022-08-12T01:37:07.752Z,22.20
2022-08-12T01:40:36.149Z,22.20
2022-08-12T01:42:34.166Z,22.20
2022-08-12T01:45:03.146Z,22.20
2022-08-12T01:47:43.190Z,22.20
2022-08-12T01:50:26.613Z,22.20
2022-08-12T01:53:10.659Z,22.20
2022-08-12T01:55:45.185Z,22.20
2022-08-12T01:58:55.477Z,22.20
2022-08-12T02:01:30.574Z,22.20
2022-08-12T02:04:43.011Z,22.10
2022-08-12T02:07:56.058Z,22.00
2022-08-12T02:10:49.327Z,22.00
2022-08-12T02:13:33.233Z,21.90
2022-08-12T02:16:30.480Z,21.90
2022-08-12T02:19:03.319Z,21.90
2022-08-12T02:22:14.852Z,21.90
2022-08-12T02:24:42.588Z,21.80
2022-08-12T02:27:12.836Z,21.80
2022-08-12T02:29:43.029Z,21.80
2022-08-12T02:32:10.504Z,21.80
2022-08-12T02:34:37.973Z,21.80
2022-08-12T02:37:09.030Z,21.80
2022-08-12T02:39:37.390Z,21.80
2022-08-12T02:42:07.114Z,21.70
2022-08-12T02:44:40.408Z,21.80
2022-08-12T02:47:58.093Z,21.70
2022-08-12T02:49:58.479Z,21.70
2022-08-12T02:52:27.523Z,21.60
2022-08-12T02:55:01.529Z,21.60
2022-08-12T02:57:31.797Z,21.60
2022-08-12T03:00:02.950Z,21.50
2022-08-12T03:02:31.923Z,21.50
2022-08-12T03:05:01.425Z,21.40
2022-08-12T03:07:55.931Z,21.40
2022-08-12T03:10:37.300Z,21.40
2022-08-12T03:13:07.487Z,21.30
2022-08-12T03:15:35.846Z,21.20
2022-08-12T03:18:24.532Z,21.10
2022-08-12T03:20:56.803Z,21.00
2022-08-12T03:23:29.903Z,20.80
2022-08-12T03:26:01.756Z,20.70
2022-08-12T03:28:50.540Z,20.70
2022-08-12T03:31:29.809Z,20.70
2022-08-12T03:34:03.581Z,20.70
2022-08-12T03:36:35.409Z,20.70
2022-08-12T03:39:18.571Z,20.70
2022-08-12T03:41:59.287Z,20.70
2022-08-12T03:45:04.101Z,20.70
2022-08-12T03:48:01.858Z,20.60
2022-08-12T03:50:48.720Z,20.60
2022-08-12T03:53:40.556Z,20.50
2022-08-12T03:56:26.078Z,20.50
2022-08-12T03:59:13.557Z,20.50
2022-08-12T04:01:41.304Z,20.50
2022-08-12T04:04:11.457Z,20.50
2022-08-12T04:06:45.351Z,20.50
2022-08-12T04:09:15.794Z,20.50
2022-08-12T04:12:04.383Z,20.50
2022-08-12T04:14:32.596Z,20.40
2022-08-12T04:17:00.702Z,20.50
2022-08-12T04:19:28.641Z,20.40
2022-08-12T04:22:01.953Z,20.40
2022-08-12T04:24:35.643Z,20.30
2022-08-12T04:27:05.551Z,20.40
2022-08-12T04:30:16.556Z,20.30
2022-08-12T04:32:21.601Z,20.30
2022-08-12T04:34:49.048Z,20.30
2022-08-12T04:37:16.754Z,20.30
2022-08-12T04:39:45.991Z,20.30
2022-08-12T04:42:13.460Z,20.30
2022-08-12T04:44:46.802Z,20.30
2022-08-12T04:47:36.228Z,20.30
2022-08-12T04:50:35.324Z,20.30
2022-08-12T04:53:46.580Z,20.30
2022-08-12T04:56:16.661Z,20.20
2022-08-12T04:58:43.939Z,20.30
2022-08-12T05:01:11.859Z,20.20
2022-08-12T05:03:45.864Z,20.20
2022-08-12T05:06:17.031Z,20.20
2022-08-12T05:08:55.635Z,20.10
2022-08-12T05:11:24.917Z,20.10
2022-08-12T05:14:01.063Z,20.10
2022-08-12T05:16:31.138Z,20.10
2022-08-12T05:19:01.247Z,20.00
2022-08-12T05:21:29.765Z,20.00
2022-08-12T05:23:56.984Z,20.00
2022-08-12T05:26:23.929Z,20.00
2022-08-12T05:28:54.219Z,20.10
2022-08-12T05:31:40.476Z,20.10
2022-08-12T05:34:14.805Z,20.10
2022-08-12T05:36:44.213Z,20.10
2022-08-12T05:39:13.446Z,20.10
2022-08-12T05:41:41.598Z,20.10
2022-08-12T05:44:13.542Z,20.20
2022-08-12T05:46:41.328Z,20.20
2022-08-12T05:49:09.277Z,20.20
2022-08-12T05:51:40.545Z,20.20
2022-08-12T05:54:09.650Z,20.20
2022-08-12T05:56:36.767Z,20.30
2022-08-12T05:59:09.437Z,20.30
2022-08-12T06:02:08.985Z,20.30
2022-08-12T06:04:24.283Z,20.40
2022-08-12T06:06:53.549Z,20.50
2022-08-12T06:09:22.713Z,20.50
2022-08-12T06:11:59.887Z,20.60
2022-08-12T06:14:36.911Z,20.60
2022-08-12T06:17:05.900Z,20.70
2022-08-12T06:20:26.907Z,20.80
2022-08-12T06:22:20.347Z,20.80
2022-08-12T06:24:49.900Z,20.90
2022-08-12T06:27:19.116Z,21.00
2022-08-12T06:30:09.844Z,21.10
2022-08-12T06:32:38.288Z,21.20
2022-08-12T06:35:27.171Z,21.30
2022-08-12T06:38:03.911Z,21.40
2022-08-12T06:40:49.296Z,21.60
2022-08-12T06:43:16.324Z,21.80
2022-08-12T06:45:47.462Z,21.90
2022-08-12T06:48:14.772Z,22.10
2022-08-12T06:50:42.545Z,22.30
2022-08-12T06:53:11.402Z,22.50
2022-08-12T06:55:56.657Z,22.60
2022-08-12T06:58:25.535Z,22.80
2022-08-12T07:00:52.693Z,23.10
2022-08-12T07:03:25.768Z,23.30
2022-08-12T07:05:53.352Z,23.50
2022-08-12T07:08:21.188Z,23.90
2022-08-12T07:10:59.195Z,24.20
2022-08-12T07:14:02.613Z,24.60
2022-08-12T07:16:50.828Z,25.00
2022-08-12T07:19:18.402Z,25.50
2022-08-12T07:22:00.387Z,25.90
2022-08-12T07:24:30.596Z,26.30
2022-08-12T07:26:58.069Z,26.80
2022-08-12T07:29:57.898Z,27.20
2022-08-12T07:32:16.340Z,27.60
2022-08-12T07:34:44.635Z,28.00
2022-08-12T07:37:22.377Z,28.40
2022-08-12T07:39:59.404Z,28.70
2022-08-12T07:42:28.557Z,29.20
2022-08-12T07:44:56.546Z,29.50
2022-08-12T07:47:24.540Z,30.00
2022-08-12T07:50:05.461Z,30.30
2022-08-12T07:52:47.061Z,30.70
2022-08-12T07:55:15.819Z,31.10
2022-08-12T07:58:00.773Z,31.50
2022-08-12T08:00:32.265Z,32.00
2022-08-12T08:02:59.758Z,32.40
2022-08-12T08:05:40.520Z,32.60
2022-08-12T08:08:17.917Z,33.00
2022-08-12T08:10:46.410Z,33.40
2022-08-12T08:13:15.420Z,33.70
2022-08-12T08:16:02.443Z,34.00
2022-08-12T08:18:31.422Z,34.30
2022-08-12T08:20:58.663Z,34.80
2022-08-12T08:23:56.339Z,35.10
2022-08-12T08:26:26.611Z,35.60
2022-08-12T08:28:54.650Z,35.80
2022-08-12T08:31:25.186Z,35.90
2022-08-12T08:34:09.762Z,36.00
2022-08-12T08:36:41.831Z,36.10
2022-08-12T08:39:21.822Z,36.40
2022-08-12T08:42:19.111Z,36.70
2022-08-12T08:44:49.787Z,36.80
2022-08-12T08:47:24.724Z,37.10
2022-08-12T08:49:51.719Z,37.30
2022-08-12T08:52:39.484Z,37.50
2022-08-12T08:55:14.151Z,37.60
2022-08-12T08:57:44.710Z,38.00
2022-08-12T09:00:17.727Z,38.20
2022-08-12T09:02:58.463Z,38.50
2022-08-12T09:05:43.035Z,38.90
2022-08-12T09:08:26.615Z,39.30
2022-08-12T09:16:35.592Z,40.40
2022-08-12T09:19:27.735Z,40.80
2022-08-12T09:22:02.517Z,41.20
2022-08-12T09:24:33.014Z,41.50
2022-08-12T09:27:00.217Z,41.80
2022-08-12T09:30:11.804Z,42.10
2022-08-12T09:32:56.442Z,42.20
2022-08-12T09:35:04.103Z,42.50
2022-08-12T09:37:55.087Z,42.60
2022-08-12T09:41:03.813Z,42.80
2022-08-12T09:43:36.352Z,42.90
2022-08-12T09:46:20.396Z,43.10
2022-08-12T09:48:56.338Z,43.40
2022-08-12T09:51:24.441Z,43.70
2022-08-12T09:54:08.976Z,43.70
2022-08-12T09:57:03.182Z,43.90
2022-08-12T10:00:16.634Z,44.30
2022-08-12T10:02:45.787Z,44.40
2022-08-12T10:05:17.986Z,44.40
2022-08-12T10:07:47.817Z,44.80
2022-08-12T10:10:23.968Z,44.90
2022-08-12T10:13:33.964Z,44.80
2022-08-12T10:16:05.066Z,45.00
2022-08-12T10:18:35.258Z,45.20
2022-08-12T10:21:14.882Z,45.10
2022-08-12T10:23:46.124Z,45.20
2022-08-12T10:26:39.267Z,45.50
2022-08-12T10:30:03.118Z,45.90
2022-08-12T10:32:45.315Z,46.30
2022-08-12T10:38:44.719Z,46.70
2022-08-12T10:41:57.701Z,47.10
2022-08-12T10:50:03.079Z,47.60
2022-08-12T10:56:21.371Z,47.90
2022-08-12T10:59:11.970Z,47.90
2022-08-12T11:04:26.255Z,48.30
2022-08-12T11:04:54.249Z,49.00
2022-08-12T11:12:36.913Z,49.00
2022-08-12T11:15:18.581Z,49.50
2022-08-12T11:17:57.668Z,49.70
2022-08-12T11:28:34.916Z,50.00
2022-08-12T11:32:01.899Z,50.40
2022-08-12T11:37:59.228Z,50.20
2022-08-12T11:40:29.428Z,50.30
2022-08-12T11:43:17.879Z,50.70
2022-08-12T11:45:47.103Z,50.90
2022-08-12T11:48:15.184Z,50.80
2022-08-12T11:50:46.419Z,50.60
2022-08-12T11:53:57.522Z,50.60
2022-08-12T11:56:05.174Z,50.60
2022-08-12T12:00:24.004Z,50.30
2022-08-12T12:02:01.609Z,50.40
2022-08-12T12:04:25.887Z,50.20
2022-08-12T12:07:07.257Z,50.40
2022-08-12T12:09:52.393Z,50.70
2022-08-12T12:12:21.553Z,50.90
2022-08-12T12:19:02.062Z,51.20
2022-08-12T12:21:48.712Z,51.40
2022-08-12T12:24:29.983Z,51.40
2022-08-12T12:27:01.663Z,51.10
2022-08-12T12:30:19.681Z,51.00
2022-08-12T12:32:29.074Z,50.80
2022-08-12T12:35:14.271Z,50.80
2022-08-12T12:38:03.558Z,51.00
2022-08-12T12:40:32.983Z,51.50
2022-08-12T12:43:05.467Z,51.60
2022-08-12T12:45:35.712Z,51.20
2022-08-12T12:48:04.336Z,50.90
2022-08-12T12:50:51.096Z,50.80
2022-08-12T12:54:05.330Z,51.10
2022-08-12T12:56:15.656Z,51.40
2022-08-12T12:58:43.884Z,51.70
2022-08-12T13:01:27.866Z,51.90
2022-08-12T13:04:02.052Z,51.90
2022-08-12T13:06:31.804Z,51.50
2022-08-12T13:09:03.055Z,51.30
2022-08-12T13:11:32.723Z,51.40
2022-08-12T13:14:13.047Z,51.40
2022-08-12T13:16:57.733Z,51.40
2022-08-12T13:19:38.938Z,51.70
2022-08-12T13:22:20.363Z,51.70
2022-08-12T13:24:54.554Z,51.50
2022-08-12T13:27:22.622Z,51.30
2022-08-12T13:29:49.846Z,51.10
2022-08-12T13:32:30.687Z,51.00
2022-08-12T13:35:04.313Z,51.20
2022-08-12T13:37:55.287Z,51.30
2022-08-12T13:40:26.685Z,51.10
2022-08-12T13:42:58.103Z,50.90
2022-08-12T13:45:32.025Z,50.70
2022-08-12T13:48:08.098Z,50.60
2022-08-12T13:59:26.707Z,50.20
2022-08-12T14:18:56.349Z,50.10
2022-08-12T14:30:24.191Z,49.80
2022-08-12T14:32:56.877Z,49.80
2022-08-12T14:35:24.512Z,49.90
2022-08-12T14:37:57.475Z,49.70
2022-08-12T14:40:31.723Z,49.20
2022-08-12T14:42:59.132Z,49.10
2022-08-12T14:45:45.255Z,49.20
2022-08-12T14:48:16.274Z,49.30
2022-08-12T14:51:09.843Z,49.30
2022-08-12T14:59:56.875Z,49.70
2022-08-12T15:02:20.020Z,49.80
2022-08-12T15:04:55.932Z,49.60
2022-08-12T15:07:33.868Z,49.50
2022-08-12T15:10:11.071Z,49.20
2022-08-12T15:12:40.537Z,48.90
2022-08-12T15:15:10.324Z,48.90
2022-08-12T15:17:43.358Z,49.00
2022-08-12T15:20:32.721Z,48.90
2022-08-12T15:23:17.943Z,48.60
2022-08-12T15:25:59.825Z,47.80
2022-08-12T15:28:33.814Z,47.00
2022-08-12T15:31:02.444Z,46.30
2022-08-12T15:33:44.717Z,45.30
2022-08-12T15:36:54.962Z,44.20
2022-08-12T15:39:37.275Z,43.30
2022-08-12T15:42:04.795Z,42.50
2022-08-12T15:44:42.155Z,41.90
2022-08-12T15:47:10.301Z,41.20
2022-08-12T15:49:54.760Z,40.20
2022-08-12T15:52:28.331Z,39.60
2022-08-12T15:54:58.388Z,39.10
2022-08-12T15:57:27.350Z,38.80
2022-08-12T16:00:09.304Z,38.50
2022-08-12T16:02:51.285Z,38.20
2022-08-12T16:06:19.372Z,37.90
2022-08-12T16:08:19.806Z,37.70
2022-08-12T16:10:53.087Z,37.40
2022-08-12T16:13:32.202Z,37.10
2022-08-12T16:16:03.647Z,36.90
2022-08-12T16:18:38.439Z,36.80
2022-08-12T16:21:10.727Z,36.40
2022-08-12T16:23:58.022Z,36.20
2022-08-12T16:26:32.161Z,35.90
2022-08-12T16:29:09.215Z,35.70
2022-08-12T16:31:43.440Z,35.50
2022-08-12T16:34:25.975Z,35.40
2022-08-12T16:37:07.305Z,35.30
2022-08-12T16:40:01.217Z,35.20
2022-08-12T16:42:27.742Z,35.10
2022-08-12T16:45:02.268Z,34.90
2022-08-12T16:47:57.416Z,34.90
2022-08-12T16:50:30.971Z,34.70
2022-08-12T16:53:02.538Z,34.60
2022-08-12T16:55:42.158Z,34.50
2022-08-12T16:58:25.545Z,34.40
2022-08-12T17:00:57.057Z,34.30
2022-08-12T17:03:28.838Z,34.20
2022-08-12T17:05:56.538Z,34.20
2022-08-12T17:08:29.038Z,34.00
2022-08-12T17:10:59.111Z,33.90
2022-08-12T17:13:26.409Z,33.70
2022-08-12T17:16:05.848Z,33.50
2022-08-12T17:18:43.096Z,33.40
2022-08-12T17:21:17.476Z,33.20
2022-08-12T17:23:53.627Z,33.20
2022-08-12T17:26:28.431Z,33.10
2022-08-12T17:29:00.648Z,33.00
2022-08-12T17:32:00.955Z,32.90
2022-08-12T17:34:38.417Z,32.80
2022-08-12T17:37:06.482Z,32.70
2022-08-12T17:40:15.932Z,32.70
2022-08-12T17:42:35.237Z,32.60
2022-08-12T17:45:18.634Z,32.60
2022-08-12T17:48:01.264Z,32.50
2022-08-12T17:50:33.879Z,32.40
2022-08-12T17:53:02.587Z,32.30
2022-08-12T17:55:40.253Z,32.20
2022-08-12T17:58:12.797Z,32.20
2022-08-12T18:00:45.207Z,32.00
2022-08-12T18:04:05.321Z,31.90
2022-08-12T18:06:08.578Z,31.80
